sensor_id;sensor_type;location;lat;lon;timestamp;P1;durP1;ratioP1;P2;durP2;ratioP2
37831;SDS011;23671;38.090;-122.570;2022-11-20T00:01:08;1.83;;;1.10;;
37831;SDS011;23671;38.090;-122.570;2022-11-20T00:03:43;2.63;;;1.30;;
37831;SDS011;23671;38.090;-122.570;2022-11-20T00:06:12;1.65;;;1.25;;
37831;SDS011;23671;38.090;-122.570;2022-11-20T00:08:41;1.10;;;1.00;;
37831;SDS011;23671;38.090;-122.570;2022-11-20T00:11:12;2.17;;;1.20;;
37831;SDS011;23671;38.090;-122.570;2022-11-20T00:13:41;1.52;;;1.30;;
37831;SDS011;23671;38.090;-122.570;2022-11-20T00:16:10;1.30;;;1.20;;
37831;SDS011;23671;38.090;-122.570;2022-11-20T00:18:39;1.00;;;0.90;;
37831;SDS011;23671;38.090;-122.570;2022-11-20T00:21:09;1.00;;;0.90;;
37831;SDS011;23671;38.090;-122.570;2022-11-20T00:23:38;2.00;;;0.90;;
37831;SDS011;23671;38.090;-122.570;2022-11-20T00:26:06;2.10;;;1.20;;
37831;SDS011;23671;38.090;-122.570;2022-11-20T00:31:05;2.67;;;0.95;;
37831;SDS011;23671;38.090;-122.570;2022-11-20T00:33:35;1.20;;;1.10;;
37831;SDS011;23671;38.090;-122.570;2022-11-20T00:36:02;1.80;;;1.02;;
37831;SDS011;23671;38.090;-122.570;2022-11-20T00:38:32;1.70;;;1.10;;
37831;SDS011;23671;38.090;-122.570;2022-11-20T00:41:02;2.40;;;1.13;;
37831;SDS011;23671;38.090;-122.570;2022-11-20T00:43:32;2.08;;;1.35;;
37831;SDS011;23671;38.090;-122.570;2022-11-20T00:48:47;2.00;;;1.30;;
37831;SDS011;23671;38.090;-122.570;2022-11-20T00:51:16;1.30;;;0.98;;
37831;SDS011;23671;38.090;-122.570;2022-11-20T00:53:46;1.20;;;1.10;;
37831;SDS011;23671;38.090;-122.570;2022-11-20T00:56:15;1.10;;;0.80;;
37831;SDS011;23671;38.090;-122.570;2022-11-20T00:58:44;2.67;;;1.20;;
37831;SDS011;23671;38.090;-122.570;2022-11-20T01:01:18;1.17;;;1.00;;
37831;SDS011;23671;38.090;-122.570;2022-11-20T01:03:51;2.80;;;1.20;;
37831;SDS011;23671;38.090;-122.570;2022-11-20T01:06:24;1.80;;;1.10;;
37831;SDS011;23671;38.090;-122.570;2022-11-20T01:08:52;1.35;;;1.25;;
37831;SDS011;23671;38.090;-122.570;2022-11-20T01:11:22;2.15;;;1.30;;
37831;SDS011;23671;38.090;-122.570;2022-11-20T01:13:54;1.35;;;1.05;;
37831;SDS011;23671;38.090;-122.570;2022-11-20T01:16:27;1.30;;;1.00;;
37831;SDS011;23671;38.090;-122.570;2022-11-20T01:18:57;1.75;;;0.90;;
37831;SDS011;23671;38.090;-122.570;2022-11-20T01:23:54;1.73;;;1.33;;
37831;SDS011;23671;38.090;-122.570;2022-11-20T01:26:23;1.52;;;1.13;;
37831;SDS011;23671;38.090;-122.570;2022-11-20T01:28:51;1.73;;;1.45;;
37831;SDS011;23671;38.090;-122.570;2022-11-20T01:31:20;2.35;;;1.13;;
37831;SDS011;23671;38.090;-122.570;2022-11-20T01:33:48;1.58;;;1.08;;
37831;SDS011;23671;38.090;-122.570;2022-11-20T01:38:44;1.63;;;1.30;;
37831;SDS011;23671;38.090;-122.570;2022-11-20T01:41:13;1.38;;;1.17;;
37831;SDS011;23671;38.090;-122.570;2022-11-20T01:44:01;1.27;;;1.07;;
37831;SDS011;23671;38.090;-122.570;2022-11-20T01:46:29;1.77;;;1.13;;
37831;SDS011;23671;38.090;-122.570;2022-11-20T01:49:15;1.48;;;1.10;;
37831;SDS011;23671;38.090;-122.570;2022-11-20T01:51:50;1.15;;;1.00;;
37831;SDS011;23671;38.090;-122.570;2022-11-20T01:54:40;2.33;;;0.88;;
37831;SDS011;23671;38.090;-122.570;2022-11-20T01:57:20;1.65;;;1.17;;
37831;SDS011;23671;38.090;-122.570;2022-11-20T02:02:36;1.65;;;1.20;;
37831;SDS011;23671;38.090;-122.570;2022-11-20T02:05:14;1.45;;;1.35;;
37831;SDS011;23671;38.090;-122.570;2022-11-20T02:07:50;2.15;;;1.40;;
37831;SDS011;23671;38.090;-122.570;2022-11-20T02:10:18;1.55;;;1.15;;
37831;SDS011;23671;38.090;-122.570;2022-11-20T02:12:45;1.73;;;1.13;;
37831;SDS011;23671;38.090;-122.570;2022-11-20T02:15:32;1.65;;;1.27;;
37831;SDS011;23671;38.090;-122.570;2022-11-20T02:18:00;3.83;;;1.30;;
37831;SDS011;23671;38.090;-122.570;2022-11-20T02:20:27;1.80;;;1.33;;
37831;SDS011;23671;38.090;-122.570;2022-11-20T02:22:58;1.33;;;1.10;;
37831;SDS011;23671;38.090;-122.570;2022-11-20T02:25:48;1.70;;;1.30;;
37831;SDS011;23671;38.090;-122.570;2022-11-20T02:28:17;2.80;;;1.25;;
37831;SDS011;23671;38.090;-122.570;2022-11-20T02:30:45;1.75;;;1.27;;
37831;SDS011;23671;38.090;-122.570;2022-11-20T02:33:12;2.60;;;1.20;;
37831;SDS011;23671;38.090;-122.570;2022-11-20T02:35:41;5.25;;;1.70;;
37831;SDS011;23671;38.090;-122.570;2022-11-20T02:38:09;2.05;;;1.50;;
37831;SDS011;23671;38.090;-122.570;2022-11-20T02:40:38;1.75;;;1.45;;
37831;SDS011;23671;38.090;-122.570;2022-11-20T02:43:05;2.47;;;1.50;;
37831;SDS011;23671;38.090;-122.570;2022-11-20T02:45:33;1.85;;;1.60;;
37831;SDS011;23671;38.090;-122.570;2022-11-20T02:47:59;2.78;;;2.05;;
37831;SDS011;23671;38.090;-122.570;2022-11-20T02:50:26;1.90;;;1.50;;
37831;SDS011;23671;38.090;-122.570;2022-11-20T02:52:53;2.92;;;1.50;;
37831;SDS011;23671;38.090;-122.570;2022-11-20T02:55:20;3.20;;;1.52;;
37831;SDS011;23671;38.090;-122.570;2022-11-20T02:57:47;2.30;;;1.45;;
37831;SDS011;23671;38.090;-122.570;2022-11-20T03:00:14;2.05;;;1.70;;
37831;SDS011;23671;38.090;-122.570;2022-11-20T03:02:41;2.25;;;1.48;;
37831;SDS011;23671;38.090;-122.570;2022-11-20T03:05:09;2.88;;;1.85;;
37831;SDS011;23671;38.090;-122.570;2022-11-20T03:07:35;2.63;;;1.55;;
37831;SDS011;23671;38.090;-122.570;2022-11-20T03:10:03;2.17;;;1.52;;
37831;SDS011;23671;38.090;-122.570;2022-11-20T03:12:30;2.20;;;1.73;;
37831;SDS011;23671;38.090;-122.570;2022-11-20T03:14:57;2.60;;;1.88;;
37831;SDS011;23671;38.090;-122.570;2022-11-20T03:17:24;2.42;;;1.60;;
37831;SDS011;23671;38.090;-122.570;2022-11-20T03:19:51;2.47;;;1.75;;
37831;SDS011;23671;38.090;-122.570;2022-11-20T03:22:18;2.92;;;1.65;;
37831;SDS011;23671;38.090;-122.570;2022-11-20T03:24:45;3.17;;;1.70;;
37831;SDS011;23671;38.090;-122.570;2022-11-20T03:27:12;2.33;;;1.90;;
37831;SDS011;23671;38.090;-122.570;2022-11-20T03:29:39;3.25;;;1.80;;
37831;SDS011;23671;38.090;-122.570;2022-11-20T03:32:06;3.45;;;1.80;;
37831;SDS011;23671;38.090;-122.570;2022-11-20T03:34:33;3.00;;;1.77;;
37831;SDS011;23671;38.090;-122.570;2022-11-20T03:37:00;2.42;;;1.80;;
37831;SDS011;23671;38.090;-122.570;2022-11-20T03:39:27;2.85;;;1.45;;
37831;SDS011;23671;38.090;-122.570;2022-11-20T03:41:54;2.65;;;1.63;;
37831;SDS011;23671;38.090;-122.570;2022-11-20T03:44:21;2.42;;;1.77;;
37831;SDS011;23671;38.090;-122.570;2022-11-20T03:46:48;3.00;;;1.70;;
37831;SDS011;23671;38.090;-122.570;2022-11-20T03:49:15;3.13;;;1.88;;
37831;SDS011;23671;38.090;-122.570;2022-11-20T03:51:42;2.25;;;2.00;;
37831;SDS011;23671;38.090;-122.570;2022-11-20T03:54:09;3.03;;;2.45;;
37831;SDS011;23671;38.090;-122.570;2022-11-20T03:56:37;4.70;;;2.67;;
37831;SDS011;23671;38.090;-122.570;2022-11-20T03:59:04;2.45;;;1.67;;
37831;SDS011;23671;38.090;-122.570;2022-11-20T04:01:33;3.15;;;2.38;;
37831;SDS011;23671;38.090;-122.570;2022-11-20T04:04:04;3.50;;;2.22;;
37831;SDS011;23671;38.090;-122.570;2022-11-20T04:06:35;3.00;;;1.92;;
37831;SDS011;23671;38.090;-122.570;2022-11-20T04:09:03;3.17;;;1.70;;
37831;SDS011;23671;38.090;-122.570;2022-11-20T04:11:32;2.78;;;1.63;;
37831;SDS011;23671;38.090;-122.570;2022-11-20T04:14:01;2.20;;;1.92;;
37831;SDS011;23671;38.090;-122.570;2022-11-20T04:16:32;2.67;;;1.85;;
37831;SDS011;23671;38.090;-122.570;2022-11-20T04:19:02;3.60;;;2.10;;
37831;SDS011;23671;38.090;-122.570;2022-11-20T04:21:30;2.53;;;2.00;;
37831;SDS011;23671;38.090;-122.570;2022-11-20T04:23:58;2.45;;;1.90;;
37831;SDS011;23671;38.090;-122.570;2022-11-20T04:26:25;3.95;;;2.13;;
37831;SDS011;23671;38.090;-122.570;2022-11-20T04:28:53;2.58;;;1.92;;
37831;SDS011;23671;38.090;-122.570;2022-11-20T04:31:22;3.22;;;2.20;;
37831;SDS011;23671;38.090;-122.570;2022-11-20T04:33:52;4.15;;;2.28;;
37831;SDS011;23671;38.090;-122.570;2022-11-20T04:36:23;4.45;;;2.13;;
37831;SDS011;23671;38.090;-122.570;2022-11-20T04:38:52;3.88;;;2.25;;
37831;SDS011;23671;38.090;-122.570;2022-11-20T04:41:21;4.82;;;2.65;;
37831;SDS011;23671;38.090;-122.570;2022-11-20T04:43:50;5.63;;;2.35;;
37831;SDS011;23671;38.090;-122.570;2022-11-20T04:46:19;4.38;;;2.35;;
37831;SDS011;23671;38.090;-122.570;2022-11-20T04:48:46;4.15;;;2.40;;
37831;SDS011;23671;38.090;-122.570;2022-11-20T04:51:13;3.78;;;2.38;;
37831;SDS011;23671;38.090;-122.570;2022-11-20T04:53:41;3.72;;;2.47;;
37831;SDS011;23671;38.090;-122.570;2022-11-20T04:56:09;4.18;;;2.42;;
37831;SDS011;23671;38.090;-122.570;2022-11-20T05:01:06;7.20;;;2.38;;
37831;SDS011;23671;38.090;-122.570;2022-11-20T05:03:41;4.85;;;2.30;;
37831;SDS011;23671;38.090;-122.570;2022-11-20T05:06:10;4.80;;;2.50;;
37831;SDS011;23671;38.090;-122.570;2022-11-20T05:08:38;4.53;;;2.58;;
37831;SDS011;23671;38.090;-122.570;2022-11-20T05:11:09;4.85;;;2.20;;
37831;SDS011;23671;38.090;-122.570;2022-11-20T05:13:38;3.38;;;2.22;;
37831;SDS011;23671;38.090;-122.570;2022-11-20T05:16:12;4.43;;;2.60;;
37831;SDS011;23671;38.090;-122.570;2022-11-20T05:18:42;4.90;;;2.65;;
37831;SDS011;23671;38.090;-122.570;2022-11-20T05:21:09;3.55;;;2.40;;
37831;SDS011;23671;38.090;-122.570;2022-11-20T05:23:37;3.75;;;2.42;;
37831;SDS011;23671;38.090;-122.570;2022-11-20T05:26:05;4.07;;;2.60;;
37831;SDS011;23671;38.090;-122.570;2022-11-20T05:28:33;3.42;;;2.55;;
37831;SDS011;23671;38.090;-122.570;2022-11-20T05:31:07;4.53;;;2.50;;
37831;SDS011;23671;38.090;-122.570;2022-11-20T05:33:36;3.63;;;2.30;;
37831;SDS011;23671;38.090;-122.570;2022-11-20T05:38:32;2.72;;;2.22;;
37831;SDS011;23671;38.090;-122.570;2022-11-20T05:41:03;5.30;;;2.92;;
37831;SDS011;23671;38.090;-122.570;2022-11-20T05:43:35;5.47;;;2.88;;
37831;SDS011;23671;38.090;-122.570;2022-11-20T05:46:07;6.95;;;2.83;;
37831;SDS011;23671;38.090;-122.570;2022-11-20T05:48:36;4.32;;;2.80;;
37831;SDS011;23671;38.090;-122.570;2022-11-20T05:51:07;3.30;;;2.60;;
37831;SDS011;23671;38.090;-122.570;2022-11-20T05:53:36;3.50;;;2.42;;
37831;SDS011;23671;38.090;-122.570;2022-11-20T05:56:04;4.07;;;2.65;;
37831;SDS011;23671;38.090;-122.570;2022-11-20T05:58:35;5.95;;;3.03;;
37831;SDS011;23671;38.090;-122.570;2022-11-20T06:01:13;5.15;;;2.85;;
37831;SDS011;23671;38.090;-122.570;2022-11-20T06:03:45;6.15;;;2.92;;
37831;SDS011;23671;38.090;-122.570;2022-11-20T06:06:13;6.32;;;3.28;;
37831;SDS011;23671;38.090;-122.570;2022-11-20T06:08:40;5.82;;;3.00;;
37831;SDS011;23671;38.090;-122.570;2022-11-20T06:11:09;6.05;;;3.17;;
37831;SDS011;23671;38.090;-122.570;2022-11-20T06:13:37;6.18;;;2.97;;
37831;SDS011;23671;38.090;-122.570;2022-11-20T06:16:05;5.28;;;3.28;;
37831;SDS011;23671;38.090;-122.570;2022-11-20T06:18:32;7.45;;;3.20;;
37831;SDS011;23671;38.090;-122.570;2022-11-20T06:21:09;6.53;;;3.42;;
37831;SDS011;23671;38.090;-122.570;2022-11-20T06:23:41;5.60;;;3.20;;
37831;SDS011;23671;38.090;-122.570;2022-11-20T06:26:12;8.52;;;3.53;;
37831;SDS011;23671;38.090;-122.570;2022-11-20T06:28:44;6.03;;;3.20;;
37831;SDS011;23671;38.090;-122.570;2022-11-20T06:31:12;5.60;;;3.08;;
37831;SDS011;23671;38.090;-122.570;2022-11-20T06:33:41;3.88;;;2.40;;
37831;SDS011;23671;38.090;-122.570;2022-11-20T06:36:09;4.55;;;2.90;;
37831;SDS011;23671;38.090;-122.570;2022-11-20T06:38:38;4.63;;;2.85;;
37831;SDS011;23671;38.090;-122.570;2022-11-20T06:41:06;5.18;;;3.03;;
37831;SDS011;23671;38.090;-122.570;2022-11-20T06:43:36;4.55;;;3.03;;
37831;SDS011;23671;38.090;-122.570;2022-11-20T06:46:03;5.50;;;2.72;;
37831;SDS011;23671;38.090;-122.570;2022-11-20T06:48:30;3.70;;;2.75;;
37831;SDS011;23671;38.090;-122.570;2022-11-20T06:50:58;3.97;;;2.60;;
37831;SDS011;23671;38.090;-122.570;2022-11-20T06:53:25;3.55;;;2.75;;
37831;SDS011;23671;38.090;-122.570;2022-11-20T06:55:52;3.90;;;2.70;;
37831;SDS011;23671;38.090;-122.570;2022-11-20T06:58:23;4.70;;;2.53;;
37831;SDS011;23671;38.090;-122.570;2022-11-20T07:01:15;4.93;;;2.60;;
37831;SDS011;23671;38.090;-122.570;2022-11-20T07:03:41;3.60;;;2.22;;
37831;SDS011;23671;38.090;-122.570;2022-11-20T07:06:09;4.68;;;2.45;;
37831;SDS011;23671;38.090;-122.570;2022-11-20T07:08:36;5.72;;;2.47;;
37831;SDS011;23671;38.090;-122.570;2022-11-20T07:11:04;3.83;;;2.38;;
37831;SDS011;23671;38.090;-122.570;2022-11-20T07:13:32;3.13;;;2.17;;
37831;SDS011;23671;38.090;-122.570;2022-11-20T07:16:04;5.00;;;2.67;;
37831;SDS011;23671;38.090;-122.570;2022-11-20T07:18:33;3.55;;;2.13;;
37831;SDS011;23671;38.090;-122.570;2022-11-20T07:21:01;3.78;;;2.40;;
37831;SDS011;23671;38.090;-122.570;2022-11-20T07:23:30;2.78;;;2.05;;
37831;SDS011;23671;38.090;-122.570;2022-11-20T07:25:57;5.03;;;2.70;;
37831;SDS011;23671;38.090;-122.570;2022-11-20T07:28:28;4.28;;;2.10;;
37831;SDS011;23671;38.090;-122.570;2022-11-20T07:30:55;3.53;;;2.17;;
37831;SDS011;23671;38.090;-122.570;2022-11-20T07:33:22;4.28;;;3.05;;
37831;SDS011;23671;38.090;-122.570;2022-11-20T07:35:49;3.30;;;2.53;;
37831;SDS011;23671;38.090;-122.570;2022-11-20T07:38:16;3.95;;;2.53;;
37831;SDS011;23671;38.090;-122.570;2022-11-20T07:40:43;3.17;;;2.70;;
37831;SDS011;23671;38.090;-122.570;2022-11-20T07:43:10;5.50;;;3.22;;
37831;SDS011;23671;38.090;-122.570;2022-11-20T07:45:37;3.30;;;2.15;;
37831;SDS011;23671;38.090;-122.570;2022-11-20T07:48:04;5.40;;;2.55;;
37831;SDS011;23671;38.090;-122.570;2022-11-20T07:50:31;6.47;;;2.53;;
37831;SDS011;23671;38.090;-122.570;2022-11-20T07:53:04;6.18;;;2.70;;
37831;SDS011;23671;38.090;-122.570;2022-11-20T07:55:31;4.38;;;2.58;;
37831;SDS011;23671;38.090;-122.570;2022-11-20T07:57:58;5.43;;;2.67;;
37831;SDS011;23671;38.090;-122.570;2022-11-20T08:00:26;3.50;;;2.50;;
37831;SDS011;23671;38.090;-122.570;2022-11-20T08:02:53;4.40;;;2.47;;
37831;SDS011;23671;38.090;-122.570;2022-11-20T08:05:20;4.25;;;2.53;;
37831;SDS011;23671;38.090;-122.570;2022-11-20T08:07:47;6.63;;;2.50;;
37831;SDS011;23671;38.090;-122.570;2022-11-20T08:10:14;5.30;;;2.60;;
37831;SDS011;23671;38.090;-122.570;2022-11-20T08:12:49;4.78;;;2.13;;
37831;SDS011;23671;38.090;-122.570;2022-11-20T08:15:35;3.97;;;2.53;;
37831;SDS011;23671;38.090;-122.570;2022-11-20T08:18:05;3.28;;;2.05;;
37831;SDS011;23671;38.090;-122.570;2022-11-20T08:20:34;4.32;;;2.10;;
37831;SDS011;23671;38.090;-122.570;2022-11-20T08:23:01;3.40;;;2.25;;
37831;SDS011;23671;38.090;-122.570;2022-11-20T08:25:33;3.80;;;2.53;;
37831;SDS011;23671;38.090;-122.570;2022-11-20T08:28:02;4.40;;;2.25;;
37831;SDS011;23671;38.090;-122.570;2022-11-20T08:33:04;3.97;;;2.40;;
37831;SDS011;23671;38.090;-122.570;2022-11-20T08:35:36;5.00;;;2.43;;
37831;SDS011;23671;38.090;-122.570;2022-11-20T08:38:04;4.18;;;2.30;;
37831;SDS011;23671;38.090;-122.570;2022-11-20T08:40:31;4.18;;;1.80;;
37831;SDS011;23671;38.090;-122.570;2022-11-20T08:42:58;4.95;;;2.60;;
37831;SDS011;23671;38.090;-122.570;2022-11-20T08:45:26;2.55;;;2.00;;
37831;SDS011;23671;38.090;-122.570;2022-11-20T08:47:53;3.53;;;2.30;;
37831;SDS011;23671;38.090;-122.570;2022-11-20T08:50:25;3.70;;;2.33;;
37831;SDS011;23671;38.090;-122.570;2022-11-20T08:52:52;3.50;;;2.17;;
37831;SDS011;23671;38.090;-122.570;2022-11-20T08:55:18;3.60;;;1.92;;
37831;SDS011;23671;38.090;-122.570;2022-11-20T08:57:45;3.13;;;2.38;;
37831;SDS011;23671;38.090;-122.570;2022-11-20T09:00:12;3.47;;;2.15;;
37831;SDS011;23671;38.090;-122.570;2022-11-20T09:02:40;3.28;;;2.10;;
37831;SDS011;23671;38.090;-122.570;2022-11-20T09:05:07;3.28;;;2.00;;
37831;SDS011;23671;38.090;-122.570;2022-11-20T09:07:34;3.55;;;2.15;;
37831;SDS011;23671;38.090;-122.570;2022-11-20T09:10:01;3.30;;;2.17;;
37831;SDS011;23671;38.090;-122.570;2022-11-20T09:12:28;3.85;;;2.10;;
37831;SDS011;23671;38.090;-122.570;2022-11-20T09:14:55;3.78;;;2.30;;
37831;SDS011;23671;38.090;-122.570;2022-11-20T09:17:22;2.38;;;1.77;;
37831;SDS011;23671;38.090;-122.570;2022-11-20T09:19:49;4.50;;;2.30;;
37831;SDS011;23671;38.090;-122.570;2022-11-20T09:22:16;4.22;;;2.28;;
37831;SDS011;23671;38.090;-122.570;2022-11-20T09:24:43;3.90;;;2.40;;
37831;SDS011;23671;38.090;-122.570;2022-11-20T09:27:10;3.15;;;2.13;;
37831;SDS011;23671;38.090;-122.570;2022-11-20T09:29:37;3.95;;;2.63;;
37831;SDS011;23671;38.090;-122.570;2022-11-20T09:32:04;4.10;;;2.28;;
37831;SDS011;23671;38.090;-122.570;2022-11-20T09:34:31;6.70;;;2.25;;
37831;SDS011;23671;38.090;-122.570;2022-11-20T09:36:58;4.85;;;1.90;;
37831;SDS011;23671;38.090;-122.570;2022-11-20T09:39:25;2.63;;;1.65;;
37831;SDS011;23671;38.090;-122.570;2022-11-20T09:41:58;3.05;;;2.10;;
37831;SDS011;23671;38.090;-122.570;2022-11-20T09:55:30;3.78;;;1.73;;
37831;SDS011;23671;38.090;-122.570;2022-11-20T09:57:59;4.15;;;2.28;;
37831;SDS011;23671;38.090;-122.570;2022-11-20T10:00:26;3.63;;;2.03;;
37831;SDS011;23671;38.090;-122.570;2022-11-20T10:02:59;2.60;;;1.95;;
37831;SDS011;23671;38.090;-122.570;2022-11-20T10:08:21;3.08;;;2.03;;
37831;SDS011;23671;38.090;-122.570;2022-11-20T10:13:55;2.53;;;1.88;;
37831;SDS011;23671;38.090;-122.570;2022-11-20T10:16:39;2.15;;;1.70;;
37831;SDS011;23671;38.090;-122.570;2022-11-20T10:24:53;4.38;;;2.30;;
37831;SDS011;23671;38.090;-122.570;2022-11-20T10:30:12;3.03;;;1.90;;
37831;SDS011;23671;38.090;-122.570;2022-11-20T10:32:51;4.55;;;2.38;;
37831;SDS011;23671;38.090;-122.570;2022-11-20T10:35:23;4.03;;;2.28;;
37831;SDS011;23671;38.090;-122.570;2022-11-20T10:38:01;4.25;;;2.20;;
37831;SDS011;23671;38.090;-122.570;2022-11-20T10:40:44;4.45;;;2.47;;
37831;SDS011;23671;38.090;-122.570;2022-11-20T10:43:50;5.38;;;2.70;;
37831;SDS011;23671;38.090;-122.570;2022-11-20T10:46:39;5.43;;;2.40;;
37831;SDS011;23671;38.090;-122.570;2022-11-20T10:49:17;5.07;;;2.30;;
37831;SDS011;23671;38.090;-122.570;2022-11-20T10:52:48;5.70;;;2.70;;
37831;SDS011;23671;38.090;-122.570;2022-11-20T10:54:56;4.00;;;2.25;;
37831;SDS011;23671;38.090;-122.570;2022-11-20T11:00:10;6.40;;;2.80;;
37831;SDS011;23671;38.090;-122.570;2022-11-20T11:02:43;5.35;;;2.85;;
37831;SDS011;23671;38.090;-122.570;2022-11-20T11:05:17;4.63;;;2.60;;
37831;SDS011;23671;38.090;-122.570;2022-11-20T11:08:03;6.70;;;2.42;;
37831;SDS011;23671;38.090;-122.570;2022-11-20T11:10:39;4.30;;;2.13;;
37831;SDS011;23671;38.090;-122.570;2022-11-20T11:13:23;5.78;;;2.30;;
37831;SDS011;23671;38.090;-122.570;2022-11-20T11:15:52;7.50;;;2.95;;
37831;SDS011;23671;38.090;-122.570;2022-11-20T11:18:30;8.15;;;2.95;;
37831;SDS011;23671;38.090;-122.570;2022-11-20T11:21:02;5.20;;;2.88;;
37831;SDS011;23671;38.090;-122.570;2022-11-20T11:23:31;5.95;;;2.78;;
37831;SDS011;23671;38.090;-122.570;2022-11-20T11:26:02;5.00;;;2.47;;
37831;SDS011;23671;38.090;-122.570;2022-11-20T11:28:31;6.20;;;3.10;;
37831;SDS011;23671;38.090;-122.570;2022-11-20T11:30:59;4.57;;;2.78;;
37831;SDS011;23671;38.090;-122.570;2022-11-20T11:33:27;8.05;;;3.58;;
37831;SDS011;23671;38.090;-122.570;2022-11-20T11:35:56;6.55;;;3.30;;
37831;SDS011;23671;38.090;-122.570;2022-11-20T11:38:31;7.40;;;3.40;;
37831;SDS011;23671;38.090;-122.570;2022-11-20T11:41:05;7.65;;;3.00;;
37831;SDS011;23671;38.090;-122.570;2022-11-20T11:43:35;6.07;;;2.80;;
37831;SDS011;23671;38.090;-122.570;2022-11-20T11:46:31;7.82;;;3.08;;
37831;SDS011;23671;38.090;-122.570;2022-11-20T11:51:32;7.60;;;3.20;;
37831;SDS011;23671;38.090;-122.570;2022-11-20T11:54:25;6.90;;;3.20;;
37831;SDS011;23671;38.090;-122.570;2022-11-20T11:56:58;5.70;;;2.85;;
37831;SDS011;23671;38.090;-122.570;2022-11-20T11:59:29;6.90;;;2.88;;
37831;SDS011;23671;38.090;-122.570;2022-11-20T12:02:24;6.05;;;3.00;;
37831;SDS011;23671;38.090;-122.570;2022-11-20T12:05:05;6.65;;;2.92;;
37831;SDS011;23671;38.090;-122.570;2022-11-20T12:15:59;6.40;;;3.22;;
37831;SDS011;23671;38.090;-122.570;2022-11-20T12:18:27;5.65;;;3.10;;
37831;SDS011;23671;38.090;-122.570;2022-11-20T12:21:02;7.47;;;3.20;;
37831;SDS011;23671;38.090;-122.570;2022-11-20T12:26:22;5.55;;;2.88;;
37831;SDS011;23671;38.090;-122.570;2022-11-20T12:29:22;4.20;;;2.83;;
37831;SDS011;23671;38.090;-122.570;2022-11-20T12:39:58;5.72;;;2.90;;
37831;SDS011;23671;38.090;-122.570;2022-11-20T12:48:45;4.82;;;2.45;;
37831;SDS011;23671;38.090;-122.570;2022-11-20T13:06:22;3.40;;;2.13;;
37831;SDS011;23671;38.090;-122.570;2022-11-20T13:08:36;5.88;;;2.30;;
37831;SDS011;23671;38.090;-122.570;2022-11-20T13:16:58;3.78;;;2.10;;
37831;SDS011;23671;38.090;-122.570;2022-11-20T13:19:40;4.50;;;1.75;;
37831;SDS011;23671;38.090;-122.570;2022-11-20T13:22:11;5.15;;;2.30;;
37831;SDS011;23671;38.090;-122.570;2022-11-20T13:24:52;4.05;;;2.08;;
37831;SDS011;23671;38.090;-122.570;2022-11-20T13:27:20;5.90;;;1.80;;
37831;SDS011;23671;38.090;-122.570;2022-11-20T13:35:26;4.15;;;2.30;;
37831;SDS011;23671;38.090;-122.570;2022-11-20T13:37:59;4.30;;;2.40;;
37831;SDS011;23671;38.090;-122.570;2022-11-20T13:40:29;3.28;;;2.00;;
37831;SDS011;23671;38.090;-122.570;2022-11-20T13:45:41;4.45;;;1.92;;
37831;SDS011;23671;38.090;-122.570;2022-11-20T13:48:23;3.88;;;2.00;;
37831;SDS011;23671;38.090;-122.570;2022-11-20T13:50:58;4.38;;;1.90;;
37831;SDS011;23671;38.090;-122.570;2022-11-20T13:53:53;3.55;;;1.85;;
37831;SDS011;23671;38.090;-122.570;2022-11-20T14:01:57;2.85;;;1.80;;
37831;SDS011;23671;38.090;-122.570;2022-11-20T14:04:35;3.45;;;2.00;;
37831;SDS011;23671;38.090;-122.570;2022-11-20T14:07:08;2.83;;;1.90;;
37831;SDS011;23671;38.090;-122.570;2022-11-20T14:09:36;5.18;;;2.10;;
37831;SDS011;23671;38.090;-122.570;2022-11-20T14:12:03;3.72;;;1.95;;
37831;SDS011;23671;38.090;-122.570;2022-11-20T14:14:46;2.67;;;1.88;;
37831;SDS011;23671;38.090;-122.570;2022-11-20T14:17:20;4.00;;;2.20;;
37831;SDS011;23671;38.090;-122.570;2022-11-20T14:19:51;3.72;;;2.30;;
37831;SDS011;23671;38.090;-122.570;2022-11-20T14:22:19;3.17;;;1.70;;
37831;SDS011;23671;38.090;-122.570;2022-11-20T14:24:49;3.28;;;1.77;;
37831;SDS011;23671;38.090;-122.570;2022-11-20T14:27:39;5.30;;;1.92;;
37831;SDS011;23671;38.090;-122.570;2022-11-20T14:30:17;3.55;;;2.13;;
37831;SDS011;23671;38.090;-122.570;2022-11-20T14:32:51;3.97;;;2.00;;
37831;SDS011;23671;38.090;-122.570;2022-11-20T14:35:34;4.32;;;2.10;;
37831;SDS011;23671;38.090;-122.570;2022-11-20T14:38:08;3.95;;;2.03;;
37831;SDS011;23671;38.090;-122.570;2022-11-20T14:40:39;5.72;;;2.28;;
37831;SDS011;23671;38.090;-122.570;2022-11-20T14:43:17;2.42;;;1.75;;
37831;SDS011;23671;38.090;-122.570;2022-11-20T14:45:57;3.42;;;2.13;;
37831;SDS011;23671;38.090;-122.570;2022-11-20T14:48:32;3.42;;;2.05;;
37831;SDS011;23671;38.090;-122.570;2022-11-20T14:57:00;3.70;;;2.05;;
37831;SDS011;23671;38.090;-122.570;2022-11-20T14:59:29;3.58;;;2.10;;
37831;SDS011;23671;38.090;-122.570;2022-11-20T15:01:59;5.38;;;2.22;;
37831;SDS011;23671;38.090;-122.570;2022-11-20T15:04:29;2.85;;;1.73;;
37831;SDS011;23671;38.090;-122.570;2022-11-20T15:06:58;3.10;;;1.90;;
37831;SDS011;23671;38.090;-122.570;2022-11-20T15:09:25;2.58;;;1.80;;
37831;SDS011;23671;38.090;-122.570;2022-11-20T15:11:58;3.60;;;1.92;;
37831;SDS011;23671;38.090;-122.570;2022-11-20T15:14:28;2.90;;;1.70;;
37831;SDS011;23671;38.090;-122.570;2022-11-20T15:16:56;3.00;;;1.80;;
37831;SDS011;23671;38.090;-122.570;2022-11-20T15:19:25;3.53;;;2.13;;
37831;SDS011;23671;38.090;-122.570;2022-11-20T15:21:52;2.55;;;1.92;;
37831;SDS011;23671;38.090;-122.570;2022-11-20T15:24:19;3.08;;;2.08;;
37831;SDS011;23671;38.090;-122.570;2022-11-20T15:26:46;2.35;;;1.80;;
37831;SDS011;23671;38.090;-122.570;2022-11-20T15:29:14;3.13;;;1.90;;
37831;SDS011;23671;38.090;-122.570;2022-11-20T15:31:44;2.70;;;1.70;;
37831;SDS011;23671;38.090;-122.570;2022-11-20T15:34:11;2.83;;;1.70;;
37831;SDS011;23671;38.090;-122.570;2022-11-20T15:36:39;3.70;;;2.45;;
37831;SDS011;23671;38.090;-122.570;2022-11-20T15:39:07;2.28;;;1.67;;
37831;SDS011;23671;38.090;-122.570;2022-11-20T15:41:36;3.97;;;2.25;;
37831;SDS011;23671;38.090;-122.570;2022-11-20T15:44:03;3.10;;;1.65;;
37831;SDS011;23671;38.090;-122.570;2022-11-20T15:46:31;3.20;;;1.58;;
37831;SDS011;23671;38.090;-122.570;2022-11-20T15:49:03;2.60;;;1.73;;
37831;SDS011;23671;38.090;-122.570;2022-11-20T15:54:00;3.10;;;1.80;;
37831;SDS011;23671;38.090;-122.570;2022-11-20T15:56:37;3.17;;;1.80;;
37831;SDS011;23671;38.090;-122.570;2022-11-20T15:59:04;4.55;;;2.15;;
37831;SDS011;23671;38.090;-122.570;2022-11-20T16:01:32;3.35;;;2.10;;
37831;SDS011;23671;38.090;-122.570;2022-11-20T16:03:59;3.22;;;2.00;;
37831;SDS011;23671;38.090;-122.570;2022-11-20T16:06:27;2.72;;;1.88;;
37831;SDS011;23671;38.090;-122.570;2022-11-20T16:08:54;4.55;;;2.30;;
37831;SDS011;23671;38.090;-122.570;2022-11-20T16:11:21;5.53;;;2.03;;
37831;SDS011;23671;38.090;-122.570;2022-11-20T16:13:48;4.05;;;1.70;;
37831;SDS011;23671;38.090;-122.570;2022-11-20T16:16:35;3.88;;;2.25;;
37831;SDS011;23671;38.090;-122.570;2022-11-20T16:19:04;3.20;;;1.90;;
37831;SDS011;23671;38.090;-122.570;2022-11-20T16:21:31;4.03;;;2.42;;
37831;SDS011;23671;38.090;-122.570;2022-11-20T16:24:00;3.67;;;1.90;;
37831;SDS011;23671;38.090;-122.570;2022-11-20T16:26:29;3.65;;;1.90;;
37831;SDS011;23671;38.090;-122.570;2022-11-20T16:28:57;2.85;;;2.00;;